Time;durP1;ratioP1;P1;durP2;ratioP2;P2;SDS_P1;SDS_P2;PMS_P1;PMS_P2;Temp;Humidity;BMP_temperature;BMP_pressure;BME280_temperature;BME280_humidity;BME280_pressure;Samples;Min_cycle;Max_cycle;Signal;HPM_P1;HPM_P2
2022/11/01 00:00:53;;;;;;;2.78;1.80;;;15.80;79.50;;;;;;5101356;28;20048;-73
2022/11/01 00:03:19;;;;;;;3.42;1.60;;;15.80;79.40;;;;;;5096569;28;20036;-72
2022/11/01 00:05:45;;;;;;;2.45;1.48;;;15.80;79.50;;;;;;5102800;28;20115;-72
2022/11/01 00:08:10;;;;;;;2.53;1.77;;;15.80;79.50;;;;;;5085029;28;20036;-72
2022/11/01 00:10:36;;;;;;;3.05;1.42;;;15.80;79.50;;;;;;5098856;28;20034;-72
2022/11/01 00:13:02;;;;;;;1.95;1.67;;;15.80;79.50;;;;;;5094612;28;20044;-72
2022/11/01 00:15:27;;;;;;;2.47;1.50;;;15.80;79.50;;;;;;5110869;28;20438;-73
2022/11/01 00:17:53;;;;;;;2.28;1.70;;;15.90;79.50;;;;;;5108185;28;20057;-72
2022/11/01 00:20:18;;;;;;;2.40;1.73;;;15.90;80.10;;;;;;5100215;28;20024;-72
2022/11/01 00:22:44;;;;;;;2.28;1.70;;;15.90;79.50;;;;;;5104232;28;20024;-73
2022/11/01 00:25:12;;;;;;;2.15;1.90;;;15.90;79.40;;;;;;5090533;28;20032;-73
2022/11/01 00:27:38;;;;;;;3.65;2.15;;;16.00;79.30;;;;;;5098115;28;20046;-72
2022/11/01 00:30:04;;;;;;;2.80;1.65;;;16.00;79.30;;;;;;5104584;28;20033;-72
2022/11/01 00:32:30;;;;;;;2.63;1.80;;;16.00;79.40;;;;;;5105751;28;20039;-73
2022/11/01 00:35:04;;;;;;;1.67;1.55;;;16.00;79.50;;;;;;5104891;28;20085;-71
2022/11/01 00:37:30;;;;;;;2.60;2.17;;;16.00;79.60;;;;;;5107975;28;20024;-72
2022/11/01 00:39:55;;;;;;;2.58;1.65;;;16.00;79.50;;;;;;5107196;28;20027;-72
2022/11/01 00:42:21;;;;;;;2.65;1.67;;;16.00;79.60;;;;;;5099598;28;20039;-67
2022/11/01 00:44:47;;;;;;;2.70;1.02;;;16.00;79.50;;;;;;5096805;28;20047;-66
2022/11/01 00:47:13;;;;;;;3.22;1.90;;;16.00;79.50;;;;;;5095579;28;20028;-67
2022/11/01 00:49:38;;;;;;;4.10;1.77;;;16.10;79.40;;;;;;5098982;28;20031;-66
2022/11/01 00:52:04;;;;;;;2.97;1.67;;;16.10;79.40;;;;;;5097895;28;20063;-66
2022/11/01 00:54:30;;;;;;;3.97;2.10;;;16.10;79.40;;;;;;5104240;28;20032;-67
2022/11/01 00:56:56;;;;;;;3.63;1.65;;;16.20;79.50;;;;;;5098646;28;20027;-66
2022/11/01 00:59:22;;;;;;;4.35;2.08;;;16.20;79.40;;;;;;5105034;28;20063;-73
2022/11/01 01:01:47;;;;;;;4.47;1.88;;;16.30;79.30;;;;;;5102527;28;20024;-72
2022/11/01 01:04:13;;;;;;;1.70;1.30;;;16.40;79.30;;;;;;5084847;28;20415;-71
2022/11/01 01:06:39;;;;;;;3.33;2.15;;;16.40;79.20;;;;;;5092642;28;20106;-73
2022/11/01 01:09:04;;;;;;;3.03;1.67;;;16.50;79.20;;;;;;5106665;28;20581;-73
2022/11/01 01:11:30;;;;;;;2.90;1.70;;;16.50;79.20;;;;;;5103096;28;20099;-72
2022/11/01 01:13:56;;;;;;;3.38;1.92;;;16.50;79.10;;;;;;5110064;28;20102;-73
2022/11/01 01:16:21;;;;;;;4.07;1.52;;;16.50;79.00;;;;;;5102570;28;20121;-72
2022/11/01 01:18:47;;;;;;;2.83;1.42;;;16.60;79.10;;;;;;5096469;28;20027;-72
2022/11/01 01:21:14;;;;;;;3.03;2.30;;;16.50;79.00;;;;;;5101811;28;20036;-72
2022/11/01 01:23:40;;;;;;;3.75;1.65;;;16.60;79.10;;;;;;5112257;28;20012;-67
2022/11/01 01:26:10;;;;;;;3.22;1.60;;;16.60;79.10;;;;;;5102895;28;20040;-66
2022/11/01 01:28:36;;;;;;;1.30;1.20;;;16.60;78.90;;;;;;5095756;28;20518;-67
2022/11/01 01:31:06;;;;;;;2.00;1.60;;;16.70;78.80;;;;;;5095515;28;20064;-66
2022/11/01 01:33:32;;;;;;;5.88;1.80;;;16.70;78.80;;;;;;5109910;28;20080;-67
2022/11/01 01:36:05;;;;;;;1.88;1.52;;;16.70;78.90;;;;;;5103028;28;20463;-67
2022/11/01 01:38:31;;;;;;;1.45;1.33;;;16.70;78.90;;;;;;5101864;28;20081;-67
2022/11/01 01:41:54;;;;;;;4.68;1.83;;;16.70;78.90;;;;;;5101347;28;20026;-73
2022/11/01 01:43:46;;;;;;;3.47;1.83;;;16.70;78.80;;;;;;5102533;28;20126;-67
2022/11/01 01:46:12;;;;;;;3.47;1.85;;;16.70;78.90;;;;;;5112489;28;20030;-72
2022/11/01 01:48:40;;;;;;;5.43;1.63;;;16.60;78.90;;;;;;5102440;28;20036;-72
2022/11/01 01:51:11;;;;;;;2.97;1.73;;;16.60;78.90;;;;;;5102526;28;20027;-72
2022/11/01 01:53:48;;;;;;;3.83;1.67;;;16.60;79.00;;;;;;5100659;28;20469;-72
2022/11/01 01:56:22;;;;;;;1.80;1.40;;;16.60;79.10;;;;;;5107461;28;20016;-73
2022/11/01 01:58:55;;;;;;;5.40;2.30;;;16.60;79.80;;;;;;5101491;28;20479;-72
2022/11/01 02:01:21;;;;;;;3.30;1.73;;;16.60;79.30;;;;;;5110365;28;20055;-72
2022/11/01 02:03:47;;;;;;;2.75;1.63;;;16.50;79.20;;;;;;5103678;28;20063;-72
2022/11/01 02:06:21;;;;;;;4.45;2.42;;;16.60;79.40;;;;;;5110344;28;20054;-72
2022/11/01 02:08:54;;;;;;;3.70;1.35;;;16.60;79.40;;;;;;5097114;28;20027;-73
2022/11/01 02:11:20;;;;;;;2.53;1.55;;;16.60;79.40;;;;;;5108793;28;20028;-73
2022/11/01 02:13:46;;;;;;;2.15;1.80;;;16.60;79.50;;;;;;5098416;28;20046;-73
2022/11/01 02:16:20;;;;;;;2.33;1.30;;;16.60;79.50;;;;;;5096761;28;20458;-72
2022/11/01 02:19:15;;;;;;;4.15;1.90;;;16.60;79.50;;;;;;5097449;28;20047;-72
2022/11/01 02:21:46;;;;;;;1.98;1.55;;;16.60;79.50;;;;;;5084276;28;20088;-73
2022/11/01 02:24:35;;;;;;;2.78;1.50;;;16.60;79.70;;;;;;5101599;28;20051;-67
2022/11/01 02:27:21;;;;;;;4.90;1.77;;;16.70;79.70;;;;;;5095305;28;20055;-67
2022/11/01 02:30:10;;;;;;;3.38;1.70;;;16.70;79.70;;;;;;5099400;28;20048;-66
2022/11/01 02:32:50;;;;;;;2.45;1.40;;;16.60;79.80;;;;;;5091788;28;20023;-66
2022/11/01 02:35:19;;;;;;;2.40;1.25;;;16.60;80.00;;;;;;5108566;28;20059;-72
2022/11/01 02:37:59;;;;;;;2.22;1.25;;;16.70;80.00;;;;;;5105781;28;20035;-72
2022/11/01 02:40:34;;;;;;;1.88;1.20;;;16.70;80.00;;;;;;5104378;28;20356;-67
2022/11/01 02:43:08;;;;;;;2.80;1.95;;;16.70;80.10;;;;;;5112103;28;20020;-72
2022/11/01 02:45:38;;;;;;;3.63;1.92;;;16.70;80.00;;;;;;5103961;28;20035;-66
2022/11/01 02:48:05;;;;;;;2.22;1.58;;;16.70;80.10;;;;;;5107055;28;20039;-66
2022/11/01 02:50:53;;;;;;;2.17;1.52;;;16.80;80.00;;;;;;5102055;28;20056;-66
2022/11/01 02:53:22;;;;;;;3.35;1.48;;;16.90;80.00;;;;;;5083773;28;20031;-66
2022/11/01 02:55:51;;;;;;;1.70;1.45;;;16.90;80.00;;;;;;5105250;28;20061;-66
2022/11/01 02:58:27;;;;;;;3.03;1.60;;;16.90;79.90;;;;;;5101221;28;20038;-66
2022/11/01 03:00:55;;;;;;;1.88;1.35;;;17.00;79.90;;;;;;5100313;28;20047;-66
2022/11/01 03:03:31;;;;;;;2.03;1.48;;;17.00;80.00;;;;;;5083749;28;20111;-72
2022/11/01 03:06:01;;;;;;;1.90;1.40;;;17.00;79.90;;;;;;5094173;28;20054;-72
2022/11/01 03:08:35;;;;;;;2.38;1.50;;;17.00;80.00;;;;;;5084307;28;20023;-72
2022/11/01 03:11:17;;;;;;;1.98;1.38;;;17.00;80.10;;;;;;5093089;28;20089;-72
2022/11/01 03:13:46;;;;;;;2.20;1.60;;;17.10;80.00;;;;;;5073822;28;20471;-72
2022/11/01 03:16:19;;;;;;;2.50;1.42;;;17.10;80.00;;;;;;5100338;28;20474;-73
2022/11/01 03:19:27;;;;;;;1.90;1.40;;;17.10;80.00;;;;;;5101422;28;20016;-71
2022/11/01 03:22:03;;;;;;;2.78;1.75;;;17.20;80.10;;;;;;5089346;28;20039;-66
2022/11/01 03:24:51;;;;;;;2.38;1.75;;;17.10;80.30;;;;;;5110432;27;20019;-66
2022/11/01 03:27:36;;;;;;;3.15;1.30;;;17.20;80.60;;;;;;5085487;28;20452;-66
2022/11/01 03:30:06;;;;;;;1.35;1.25;;;17.20;80.80;;;;;;5105750;28;20165;-66
2022/11/01 03:32:46;;;;;;;3.55;1.75;;;17.30;80.70;;;;;;5105455;28;20024;-66
2022/11/01 03:35:18;;;;;;;4.68;1.55;;;17.30;80.50;;;;;;5105632;28;20024;-66
2022/11/01 03:37:45;;;;;;;2.47;1.45;;;17.40;81.00;;;;;;5097262;28;20382;-67
2022/11/01 03:40:15;;;;;;;5.40;1.38;;;17.40;80.40;;;;;;5106196;28;20424;-72
2022/11/01 03:42:49;;;;;;;1.55;1.23;;;17.50;80.30;;;;;;5105627;28;20886;-72
2022/11/01 03:45:19;;;;;;;1.35;1.05;;;17.50;80.10;;;;;;5104689;28;20549;-72
2022/11/01 03:47:45;;;;;;;1.45;1.17;;;17.50;80.10;;;;;;5099781;28;20680;-72
2022/11/01 03:50:18;;;;;;;1.70;1.13;;;17.50;80.00;;;;;;5095913;28;20028;-72
2022/11/01 03:52:45;;;;;;;1.17;1.00;;;17.50;80.00;;;;;;5103298;28;20035;-72
2022/11/01 03:55:18;;;;;;;3.97;1.35;;;17.60;80.10;;;;;;5098107;28;20146;-67
2022/11/01 03:57:58;;;;;;;3.33;1.38;;;17.50;80.00;;;;;;5093123;28;20441;-72
2022/11/01 04:00:29;;;;;;;1.13;0.98;;;17.60;80.00;;;;;;5099287;28;20108;-67
2022/11/01 04:02:57;;;;;;;1.63;0.95;;;17.60;80.00;;;;;;5106428;28;20395;-66
2022/11/01 04:05:25;;;;;;;1.77;1.13;;;17.60;80.00;;;;;;5099165;28;20024;-66
2022/11/01 04:07:51;;;;;;;1.70;1.25;;;17.60;80.00;;;;;;5085167;28;20034;-66
2022/11/01 04:10:18;;;;;;;1.73;1.20;;;17.60;79.90;;;;;;5111426;28;20075;-72
2022/11/01 04:12:45;;;;;;;2.55;1.58;;;17.70;79.90;;;;;;5102121;28;20032;-72
2022/11/01 04:20:55;;;;;;;2.13;1.55;;;17.70;79.70;;;;;;5103083;28;20634;-72
2022/11/01 04:23:21;;;;;;;2.03;1.25;;;17.70;79.50;;;;;;5102005;28;20070;-67
2022/11/01 04:25:46;;;;;;;3.25;1.90;;;17.70;79.30;;;;;;5104370;28;20333;-66
2022/11/01 04:28:14;;;;;;;1.35;1.10;;;17.70;78.90;;;;;;5107624;28;20632;-66
2022/11/01 04:30:40;;;;;;;1.50;0.68;;;17.70;78.30;;;;;;5107146;28;20526;-67
2022/11/01 04:33:06;;;;;;;1.63;1.08;;;17.70;77.60;;;;;;5108018;28;20030;-67
2022/11/01 04:35:32;;;;;;;1.38;0.80;;;17.70;76.90;;;;;;5101734;28;20024;-66
2022/11/01 04:37:58;;;;;;;1.75;0.95;;;17.80;76.50;;;;;;5109386;28;20016;-66
2022/11/01 04:40:24;;;;;;;1.15;1.05;;;17.80;75.10;;;;;;5091545;28;20032;-67
2022/11/01 04:42:53;;;;;;;0.70;0.70;;;17.70;74.50;;;;;;5105812;28;20028;-66
2022/11/01 04:45:19;;;;;;;2.08;0.80;;;17.70;73.90;;;;;;5104214;28;20040;-72
2022/11/01 04:47:51;;;;;;;1.00;0.85;;;17.70;74.00;;;;;;5107002;28;20364;-72
2022/11/01 04:50:19;;;;;;;0.80;0.80;;;17.70;73.50;;;;;;5102875;28;20035;-72
2022/11/01 04:52:45;;;;;;;1.13;0.80;;;17.60;72.60;;;;;;5108317;28;20028;-66
2022/11/01 04:55:11;;;;;;;2.45;0.70;;;17.60;71.50;;;;;;5098076;28;20089;-67
2022/11/01 04:57:41;;;;;;;1.00;0.93;;;17.60;69.90;;;;;;5093182;28;20056;-67
2022/11/01 05:00:11;;;;;;;1.00;0.73;;;17.50;69.50;;;;;;5090068;28;20055;-66
2022/11/01 05:02:38;;;;;;;1.25;0.30;;;17.50;69.20;;;;;;5090706;28;20425;-66
2022/11/01 05:05:05;;;;;;;0.85;0.40;;;17.40;68.50;;;;;;5098606;28;20093;-72
2022/11/01 05:07:31;;;;;;;0.30;0.30;;;17.40;69.00;;;;;;5090217;28;20367;-72
2022/11/01 05:09:57;;;;;;;0.85;0.50;;;17.30;68.40;;;;;;5091686;28;20023;-72
2022/11/01 05:12:23;;;;;;;1.10;0.60;;;17.30;68.50;;;;;;5092168;28;20068;-67
2022/11/01 05:14:49;;;;;;;0.38;0.38;;;17.20;67.90;;;;;;5091322;28;20343;-66
2022/11/01 05:17:14;;;;;;;1.67;0.38;;;17.10;68.70;;;;;;5086584;28;20024;-72
2022/11/01 05:19:40;;;;;;;0.20;0.20;;;17.10;68.00;;;;;;5089017;28;20103;-72
2022/11/01 05:22:06;;;;;;;0.32;0.30;;;17.00;67.90;;;;;;5088961;28;20497;-72
2022/11/01 05:24:31;;;;;;;1.17;0.57;;;17.00;68.50;;;;;;5090924;28;20032;-72
2022/11/01 05:26:59;;;;;;;0.20;0.20;;;16.90;68.60;;;;;;5091680;28;20035;-72
2022/11/01 05:29:25;;;;;;;0.20;0.20;;;16.80;68.70;;;;;;5092790;28;20065;-67
2022/11/01 05:31:51;;;;;;;0.30;0.30;;;16.80;69.00;;;;;;5092146;28;20407;-66
2022/11/01 05:34:17;;;;;;;0.30;0.30;;;16.80;68.90;;;;;;5086904;28;20072;-66
2022/11/01 05:36:42;;;;;;;0.22;0.22;;;16.70;69.10;;;;;;5089227;28;20032;-66
2022/11/01 05:39:08;;;;;;;1.20;0.60;;;16.70;69.10;;;;;;5089570;28;20032;-66
2022/11/01 05:41:34;;;;;;;0.68;0.50;;;16.60;68.80;;;;;;5091358;28;20036;-66
2022/11/01 05:44:00;;;;;;;0.32;0.32;;;16.60;69.10;;;;;;5079859;28;20024;-66
2022/11/01 05:46:25;;;;;;;0.55;0.55;;;16.50;69.20;;;;;;5087773;28;20074;-66
2022/11/01 05:48:51;;;;;;;0.30;0.30;;;16.50;68.80;;;;;;5087788;28;20024;-67
2022/11/01 05:51:17;;;;;;;0.88;0.30;;;16.50;69.00;;;;;;5089262;28;20625;-66
2022/11/01 05:53:42;;;;;;;0.22;0.22;;;16.50;69.00;;;;;;5091524;28;20113;-67
2022/11/01 05:56:08;;;;;;;0.30;0.30;;;16.50;69.60;;;;;;5093685;28;20035;-66
2022/11/01 05:58:34;;;;;;;0.70;0.57;;;16.40;69.50;;;;;;5085752;28;20482;-66
2022/11/01 06:01:02;;;;;;;0.30;0.30;;;16.40;68.90;;;;;;5091327;28;20046;-72
2022/11/01 06:03:28;;;;;;;0.13;0.13;;;16.40;68.70;;;;;;5088413;28;20035;-66
2022/11/01 06:05:54;;;;;;;0.30;0.30;;;16.30;68.90;;;;;;5086453;28;20040;-66
2022/11/01 06:08:19;;;;;;;0.43;0.38;;;16.30;68.50;;;;;;5088051;28;20514;-67
2022/11/01 06:10:45;;;;;;;0.20;0.20;;;16.30;68.50;;;;;;5091126;28;20057;-66
2022/11/01 06:13:11;;;;;;;0.65;0.32;;;16.30;68.70;;;;;;5087806;28;20456;-66
2022/11/01 06:15:36;;;;;;;0.28;0.28;;;16.30;68.70;;;;;;5093988;28;20024;-66
2022/11/01 06:18:02;;;;;;;0.52;0.52;;;16.20;68.80;;;;;;5091807;28;20528;-66
2022/11/01 06:20:29;;;;;;;0.93;0.50;;;16.20;68.50;;;;;;5098786;28;20024;-66
2022/11/01 06:22:56;;;;;;;0.35;0.30;;;16.10;67.70;;;;;;5088653;28;20353;-66
2022/11/01 06:25:22;;;;;;;0.60;0.50;;;16.10;67.50;;;;;;5087612;28;20119;-66
2022/11/01 06:27:48;;;;;;;2.50;0.50;;;16.00;66.80;;;;;;5085181;28;20439;-66
2022/11/01 06:30:14;;;;;;;2.63;0.52;;;16.00;66.80;;;;;;5087358;28;20107;-66
2022/11/01 06:32:40;;;;;;;0.40;0.40;;;16.00;67.10;;;;;;5088666;28;20032;-71
2022/11/01 06:35:06;;;;;;;5.22;0.60;;;16.00;66.80;;;;;;5089543;28;20398;-66
2022/11/01 06:37:32;;;;;;;0.57;0.40;;;15.90;66.10;;;;;;5089612;28;20036;-66
2022/11/01 06:39:58;;;;;;;0.32;0.30;;;15.90;65.80;;;;;;5089660;28;20103;-66
2022/11/01 06:42:23;;;;;;;2.55;0.43;;;15.90;65.60;;;;;;5091138;28;20114;-72
2022/11/01 06:44:49;;;;;;;0.40;0.40;;;15.90;65.70;;;;;;5088097;28;20118;-72
2022/11/01 06:47:15;;;;;;;1.15;0.50;;;15.90;65.80;;;;;;5086137;28;20141;-72
2022/11/01 06:49:40;;;;;;;0.75;0.45;;;15.90;65.70;;;;;;5089359;28;20028;-71
2022/11/01 06:52:07;;;;;;;0.50;0.50;;;15.90;65.90;;;;;;5087316;28;20028;-72
2022/11/01 06:54:33;;;;;;;1.58;0.63;;;15.90;65.80;;;;;;5097950;28;20031;-72
2022/11/01 06:56:59;;;;;;;2.20;0.85;;;15.90;65.90;;;;;;5109539;28;20022;-72
2022/11/01 06:59:24;;;;;;;1.42;0.40;;;15.80;66.20;;;;;;5105076;28;20044;-72
2022/11/01 07:01:53;;;;;;;0.30;0.30;;;15.80;66.50;;;;;;5089784;28;20374;-72
2022/11/01 07:04:20;;;;;;;1.90;1.13;;;15.80;66.50;;;;;;5088429;28;20576;-72
2022/11/01 07:06:46;;;;;;;0.60;0.50;;;15.80;66.50;;;;;;5088019;28;20096;-72
2022/11/01 07:09:12;;;;;;;1.27;0.55;;;15.70;66.20;;;;;;5089453;28;20123;-72
2022/11/01 07:11:38;;;;;;;0.93;0.80;;;15.70;66.10;;;;;;5092395;28;20027;-71
2022/11/01 07:14:04;;;;;;;0.90;0.52;;;15.70;65.10;;;;;;5096499;28;20096;-71
2022/11/01 07:16:31;;;;;;;1.13;0.50;;;15.70;65.20;;;;;;5084490;28;20036;-71
2022/11/01 07:18:57;;;;;;;1.85;0.65;;;15.70;64.90;;;;;;5082273;28;20490;-72
2022/11/01 07:21:23;;;;;;;3.08;0.68;;;15.60;64.70;;;;;;5087021;28;20023;-72
2022/11/01 07:23:49;;;;;;;0.60;0.50;;;15.60;64.90;;;;;;5097441;28;20178;-72
2022/11/01 07:26:14;;;;;;;1.02;0.73;;;15.60;64.60;;;;;;5098317;28;20103;-72
2022/11/01 07:28:40;;;;;;;0.60;0.35;;;15.60;64.40;;;;;;5099766;28;20509;-72
2022/11/01 07:31:06;;;;;;;4.20;1.00;;;15.60;64.40;;;;;;5099864;28;20043;-73
2022/11/01 07:33:35;;;;;;;2.22;0.70;;;15.60;64.10;;;;;;5090251;28;20032;-72
2022/11/01 07:36:01;;;;;;;0.90;0.65;;;15.60;64.00;;;;;;5068219;28;20023;-72
2022/11/01 07:38:27;;;;;;;0.55;0.52;;;15.60;63.90;;;;;;5092156;28;20024;-71
2022/11/01 07:40:53;;;;;;;1.48;0.70;;;15.60;64.10;;;;;;5089050;28;20101;-66
2022/11/01 07:43:19;;;;;;;2.00;1.05;;;15.60;64.20;;;;;;5097876;28;20307;-67
2022/11/01 07:45:45;;;;;;;1.17;0.30;;;15.60;64.40;;;;;;5084190;28;20494;-67
2022/11/01 07:48:13;;;;;;;1.88;0.75;;;15.70;64.40;;;;;;5086535;28;20120;-68
2022/11/01 07:50:40;;;;;;;0.85;0.57;;;15.60;64.40;;;;;;5093388;28;20042;-67
2022/11/01 07:53:08;;;;;;;0.82;0.50;;;15.70;64.70;;;;;;5097818;28;20031;-67
2022/11/01 07:55:35;;;;;;;3.10;0.57;;;15.70;64.80;;;;;;5086401;28;20036;-67
2022/11/01 07:58:01;;;;;;;2.05;0.80;;;15.60;64.90;;;;;;5094525;28;20024;-67
2022/11/01 08:00:27;;;;;;;0.60;0.43;;;15.70;65.10;;;;;;5088751;28;20044;-67
2022/11/01 08:03:03;;;;;;;5.30;0.98;;;15.70;65.10;;;;;;5086601;28;20024;-67
2022/11/01 08:05:29;;;;;;;2.05;1.08;;;15.70;65.00;;;;;;5088931;28;20024;-67
2022/11/01 08:07:57;;;;;;;0.57;0.57;;;15.70;64.90;;;;;;5087788;28;20036;-65
2022/11/01 08:10:27;;;;;;;1.67;0.68;;;15.70;65.00;;;;;;5088391;28;20058;-65
2022/11/01 08:13:05;;;;;;;0.88;0.73;;;15.70;64.90;;;;;;5089448;28;20028;-65
2022/11/01 08:15:30;;;;;;;0.95;0.75;;;15.80;64.70;;;;;;5078316;28;20418;-65
2022/11/01 08:17:57;;;;;;;2.40;0.95;;;15.80;64.60;;;;;;5089683;28;20028;-65
2022/11/01 08:20:24;;;;;;;1.67;1.02;;;15.90;64.80;;;;;;5101797;28;20483;-65
2022/11/01 08:22:50;;;;;;;1.88;0.95;;;15.90;64.60;;;;;;5088188;28;20036;-65
2022/11/01 08:25:16;;;;;;;7.25;0.90;;;15.90;64.30;;;;;;5089031;28;20036;-64
2022/11/01 08:27:42;;;;;;;2.10;0.47;;;16.00;64.30;;;;;;5100660;28;20509;-64
2022/11/01 08:30:08;;;;;;;2.03;0.80;;;16.00;64.20;;;;;;5088471;28;20682;-65
2022/11/01 08:32:34;;;;;;;2.53;1.25;;;16.00;64.50;;;;;;5092614;28;20040;-69
2022/11/01 08:35:00;;;;;;;1.83;0.77;;;16.10;64.40;;;;;;5092874;28;20028;-68
2022/11/01 08:37:25;;;;;;;0.50;0.45;;;16.20;64.40;;;;;;5098914;28;20383;-70
2022/11/01 08:39:51;;;;;;;0.40;0.40;;;16.20;64.40;;;;;;5092987;28;20051;-69
2022/11/01 08:42:16;;;;;;;5.15;1.25;;;16.30;64.10;;;;;;5092629;28;20055;-68
2022/11/01 08:44:42;;;;;;;1.75;0.30;;;16.30;63.60;;;;;;5091127;28;20051;-66
2022/11/01 08:47:08;;;;;;;2.00;0.57;;;16.20;63.70;;;;;;5094474;28;20562;-65
2022/11/01 08:49:34;;;;;;;2.47;1.17;;;16.30;63.50;;;;;;5104050;28;20027;-65
2022/11/01 08:52:00;;;;;;;4.97;0.57;;;16.30;63.40;;;;;;5113005;28;20092;-64
2022/11/01 08:54:25;;;;;;;4.78;0.32;;;16.40;63.30;;;;;;5114084;28;20465;-65
2022/11/01 08:56:51;;;;;;;1.40;0.73;;;16.50;63.40;;;;;;5112126;28;20055;-65
2022/11/01 08:59:16;;;;;;;2.25;0.73;;;16.60;62.60;;;;;;5099380;28;20072;-65
2022/11/01 09:01:42;;;;;;;0.60;0.60;;;16.60;62.20;;;;;;5112395;28;20032;-66
2022/11/01 09:04:08;;;;;;;1.52;0.80;;;16.60;61.80;;;;;;5103473;28;20109;-70
2022/11/01 09:06:34;;;;;;;0.82;0.77;;;16.60;62.60;;;;;;5102203;28;20032;-69
2022/11/01 09:09:03;;;;;;;1.98;0.93;;;16.70;62.40;;;;;;5104202;28;20019;-70
2022/11/01 09:11:29;;;;;;;3.30;1.00;;;16.70;61.90;;;;;;5097739;28;20088;-68
2022/11/01 09:13:56;;;;;;;3.33;1.15;;;16.80;61.90;;;;;;5098106;28;20024;-67
2022/11/01 09:16:22;;;;;;;2.75;0.90;;;16.80;61.90;;;;;;5108239;28;20108;-65
2022/11/01 09:18:48;;;;;;;4.20;1.25;;;16.90;61.80;;;;;;5093536;28;20029;-65
2022/11/01 09:21:14;;;;;;;8.13;1.00;;;17.00;61.30;;;;;;5085445;28;20494;-69
2022/11/01 09:23:40;;;;;;;2.55;0.90;;;16.90;61.20;;;;;;5089933;28;20016;-69
2022/11/01 09:26:09;;;;;;;3.17;1.05;;;17.00;61.30;;;;;;5093792;28;20517;-69
2022/11/01 09:28:35;;;;;;;3.67;0.95;;;17.00;61.00;;;;;;5073909;28;20028;-69
2022/11/01 09:31:05;;;;;;;2.33;0.75;;;17.10;61.20;;;;;;5107692;28;20069;-70
2022/11/01 09:33:31;;;;;;;2.65;0.80;;;17.10;61.10;;;;;;5100821;28;20028;-70
2022/11/01 09:35:58;;;;;;;3.38;1.10;;;17.20;61.20;;;;;;5098847;28;20077;-68
2022/11/01 09:38:24;;;;;;;1.30;0.98;;;17.30;60.70;;;;;;5104995;28;20032;-68
2022/11/01 09:41:05;;;;;;;0.80;0.80;;;17.30;60.60;;;;;;5112689;28;20364;-68
2022/11/01 09:43:36;;;;;;;3.17;1.15;;;17.40;60.70;;;;;;5095337;28;20095;-68
2022/11/01 09:46:04;;;;;;;2.92;1.17;;;17.40;60.40;;;;;;5086112;28;20074;-68
2022/11/01 09:48:32;;;;;;;2.30;1.42;;;17.50;60.10;;;;;;5091216;28;20032;-68
2022/11/01 09:51:02;;;;;;;2.80;0.68;;;17.50;60.20;;;;;;5106485;28;20123;-69
2022/11/01 09:53:29;;;;;;;2.22;0.60;;;17.60;60.10;;;;;;5091544;28;20028;-68
2022/11/01 09:55:57;;;;;;;1.83;1.25;;;17.70;60.20;;;;;;5090225;28;20036;-67
2022/11/01 09:58:45;;;;;;;5.47;0.98;;;17.80;59.60;;;;;;5093652;28;20077;-69
2022/11/01 10:01:38;;;;;;;6.72;0.73;;;17.90;59.30;;;;;;5082643;28;20052;-64
2022/11/01 10:04:19;;;;;;;0.90;0.45;;;17.90;58.80;;;;;;5085687;28;20495;-64
2022/11/01 10:07:12;;;;;;;0.82;0.73;;;17.90;58.80;;;;;;5087434;28;20283;-65
2022/11/01 10:10:13;;;;;;;2.80;0.77;;;17.90;58.90;;;;;;5088301;28;20391;-65
2022/11/01 10:13:00;;;;;;;4.97;1.33;;;18.00;58.70;;;;;;5084043;28;20040;-69
2022/11/01 10:15:38;;;;;;;4.00;1.45;;;18.10;58.50;;;;;;5080988;28;20027;-69
2022/11/01 10:18:31;;;;;;;1.92;0.57;;;18.00;58.30;;;;;;5096887;28;20376;-69
2022/11/01 10:21:16;;;;;;;1.48;1.15;;;18.10;58.60;;;;;;5091085;28;20050;-69
2022/11/01 10:23:52;;;;;;;1.20;0.40;;;18.20;58.30;;;;;;5090075;28;20020;-70
2022/11/01 10:26:25;;;;;;;0.90;0.70;;;18.30;58.20;;;;;;5091136;28;20095;-69
2022/11/01 10:29:03;;;;;;;1.20;0.75;;;18.30;57.80;;;;;;5088068;28;20059;-69
2022/11/01 10:31:33;;;;;;;1.35;1.02;;;18.40;57.40;;;;;;5084157;28;20050;-69
2022/11/01 10:34:22;;;;;;;1.52;0.82;;;18.50;57.40;;;;;;5084652;28;20499;-69
2022/11/01 10:36:49;;;;;;;2.25;0.75;;;18.50;56.80;;;;;;5081245;28;20553;-69
2022/11/01 10:39:41;;;;;;;1.13;0.68;;;18.40;57.20;;;;;;5091383;28;20023;-69
2022/11/01 10:42:15;;;;;;;1.83;0.98;;;18.40;57.60;;;;;;5090945;28;20024;-69
2022/11/01 10:45:07;;;;;;;2.45;0.85;;;18.40;57.40;;;;;;5089173;28;20094;-68
2022/11/01 10:47:33;;;;;;;2.38;0.90;;;18.50;57.40;;;;;;5091112;28;20043;-66
2022/11/01 10:50:05;;;;;;;2.15;0.85;;;18.60;57.50;;;;;;5098419;28;20015;-65
2022/11/01 10:52:53;;;;;;;1.02;0.90;;;18.80;57.30;;;;;;5092593;28;20489;-65
2022/11/01 10:55:25;;;;;;;0.70;0.70;;;18.90;57.20;;;;;;5100437;28;20379;-65
2022/11/01 10:58:12;;;;;;;0.95;0.70;;;18.90;56.40;;;;;;5093153;28;20016;-69
2022/11/01 11:00:41;;;;;;;3.40;1.17;;;19.00;56.80;;;;;;5090743;28;20044;-69
2022/11/01 11:03:27;;;;;;;2.15;1.23;;;19.10;56.20;;;;;;5104275;28;20031;-65
2022/11/01 11:05:55;;;;;;;2.45;0.60;;;19.20;56.10;;;;;;5089584;28;20122;-65
2022/11/01 11:08:23;;;;;;;3.28;1.00;;;19.30;56.50;;;;;;5089344;28;20081;-65
2022/11/01 11:10:49;;;;;;;4.32;0.90;;;19.50;56.20;;;;;;5085060;28;20067;-66
2022/11/01 11:13:22;;;;;;;1.90;1.20;;;19.70;55.70;;;;;;5104161;28;20031;-65
2022/11/01 11:16:01;;;;;;;4.28;1.08;;;19.70;55.20;;;;;;5088547;28;20032;-69
2022/11/01 11:18:26;;;;;;;4.28;1.30;;;19.70;55.30;;;;;;5089257;28;20028;-69
2022/11/01 11:21:03;;;;;;;1.23;0.80;;;19.90;55.50;;;;;;5089694;28;20024;-70
2022/11/01 11:23:32;;;;;;;1.60;0.60;;;20.10;54.70;;;;;;5092802;28;20024;-69
2022/11/01 11:26:08;;;;;;;1.95;0.80;;;20.10;54.30;;;;;;5091930;28;20111;-65
2022/11/01 11:28:41;;;;;;;1.77;0.80;;;20.20;54.50;;;;;;5101684;28;20028;-70
2022/11/01 11:31:30;;;;;;;1.05;0.75;;;20.40;54.70;;;;;;5087602;28;20450;-70
2022/11/01 11:33:59;;;;;;;0.70;0.70;;;21.00;52.60;;;;;;5081154;28;21408;-64
2022/11/01 11:36:32;;;;;;;1.92;0.70;;;21.60;51.60;;;;;;5088685;28;20016;-64
2022/11/01 11:38:59;;;;;;;5.95;0.95;;;22.80;49.90;;;;;;5091581;28;20453;-64
2022/11/01 11:41:32;;;;;;;2.20;0.65;;;24.00;46.50;;;;;;5093347;28;20059;-65
2022/11/01 11:43:58;;;;;;;0.60;0.60;;;25.10;44.90;;;;;;5089638;28;20043;-65
2022/11/01 11:46:25;;;;;;;2.70;1.02;;;26.20;43.90;;;;;;5088594;28;20035;-65
2022/11/01 11:49:03;;;;;;;2.92;0.80;;;27.30;42.30;;;;;;5087187;28;20051;-65
2022/11/01 11:51:31;;;;;;;4.25;0.63;;;28.20;40.60;;;;;;5094727;28;20028;-65
2022/11/01 11:54:37;;;;;;;2.72;0.70;;;28.90;38.50;;;;;;5102242;28;20034;-65
2022/11/01 11:57:16;;;;;;;3.65;0.90;;;29.20;38.20;;;;;;5096649;28;20164;-66
2022/11/01 11:59:44;;;;;;;0.73;0.50;;;29.50;37.30;;;;;;5096590;28;20513;-65
2022/11/01 12:02:37;;;;;;;1.80;0.68;;;29.60;37.30;;;;;;5088487;28;20035;-66
2022/11/01 12:05:07;;;;;;;1.83;0.90;;;29.90;36.40;;;;;;5082460;28;20040;-66
2022/11/01 12:07:34;;;;;;;3.22;0.63;;;29.90;36.70;;;;;;5087294;28;20020;-66
2022/11/01 12:10:02;;;;;;;2.10;1.00;;;30.00;36.80;;;;;;5102886;28;20386;-66
2022/11/01 12:12:31;;;;;;;0.98;0.52;;;30.10;36.40;;;;;;5102065;28;20103;-66
2022/11/01 12:14:59;;;;;;;0.95;0.60;;;30.50;36.30;;;;;;5082813;28;20027;-67
2022/11/01 12:17:43;;;;;;;1.35;0.65;;;31.00;36.00;;;;;;5087227;28;20125;-68
2022/11/01 12:20:13;;;;;;;1.27;0.70;;;31.00;35.50;;;;;;5083758;28;20521;-70
2022/11/01 12:22:45;;;;;;;2.83;1.00;;;30.40;35.40;;;;;;5095850;28;20035;-70
2022/11/01 12:25:13;;;;;;;;;;;29.50;36.50;;;;;;5090207;28;20032;-68
2022/11/01 12:27:57;;;;;;;1.10;0.85;;;29.30;35.90;;;;;;5088871;28;19911;-68
2022/11/01 12:30:25;;;;;;;2.90;0.63;;;29.60;37.10;;;;;;5091840;28;20044;-69
2022/11/01 12:32:55;;;;;;;3.97;0.77;;;30.00;36.90;;;;;;5096987;28;20027;-68
2022/11/01 12:35:31;;;;;;;1.42;0.63;;;30.30;36.10;;;;;;5096115;28;20059;-66
2022/11/01 12:38:25;;;;;;;2.30;1.08;;;30.10;35.50;;;;;;5084510;28;20419;-65
2022/11/01 12:40:52;;;;;;;1.70;0.98;;;29.60;35.70;;;;;;5096318;28;20542;-65
2022/11/01 12:43:32;;;;;;;1.55;0.80;;;28.20;37.20;;;;;;5097023;28;20032;-65
2022/11/01 12:46:01;;;;;;;0.88;0.73;;;27.10;38.90;;;;;;5092688;28;20072;-70
2022/11/01 12:48:43;;;;;;;3.60;0.90;;;26.10;40.00;;;;;;5097879;28;20032;-65
2022/11/01 12:51:27;;;;;;;1.25;0.80;;;24.80;41.50;;;;;;5088881;28;20065;-66
2022/11/01 12:54:10;;;;;;;2.55;0.80;;;23.70;43.50;;;;;;5088156;28;20267;-65
2022/11/01 12:56:36;;;;;;;1.85;0.73;;;22.70;45.30;;;;;;5094600;28;20070;-65
2022/11/01 12:59:04;;;;;;;3.58;0.70;;;22.10;46.70;;;;;;5099374;28;20021;-66
2022/11/01 13:01:45;;;;;;;0.77;0.47;;;21.80;47.40;;;;;;5089769;28;20089;-65
2022/11/01 13:04:25;;;;;;;1.25;0.60;;;21.80;47.70;;;;;;5089307;28;20039;-69
2022/11/01 13:07:15;;;;;;;3.72;0.50;;;21.90;47.90;;;;;;5089571;28;20119;-69
2022/11/01 13:10:03;;;;;;;1.65;0.47;;;21.90;47.70;;;;;;5096216;28;20035;-69